Time;durP1;ratioP1;P1;durP2;ratioP2;P2;SDS_P1;SDS_P2;PMS_P1;PMS_P2;Temp;Humidity;BMP_temperature;BMP_pressure;BME280_temperature;BME280_humidity;BME280_pressure;Samples;Min_cycle;Max_cycle;Signal;HPM_P1;HPM_P2
2020/12/30 02:54:51;;;;;;;40.83;33.50;;;4.30;99.90;;;;;;5874127;23;20415;-87
2020/12/30 07:25:17;;;;;;;32.97;28.10;;;4.00;99.90;;;;;;5816821;24;20771;-90
2020/12/30 07:27:46;;;;;;;33.20;29.60;;;4.00;99.90;;;;;;5993520;23;20442;-89
2020/12/30 07:30:14;;;;;;;32.07;25.90;;;3.90;99.90;;;;;;6051989;23;20517;-89
2020/12/30 07:32:46;;;;;;;30.00;25.90;;;3.90;99.90;;;;;;6028215;23;20427;-89
2020/12/30 07:35:14;;;;;;;31.67;26.93;;;3.90;99.90;;;;;;6028315;23;20422;-89
2020/12/30 07:37:45;;;;;;;32.10;25.87;;;3.90;99.90;;;;;;6026065;23;20479;-89
2020/12/30 07:40:13;;;;;;;34.73;29.27;;;3.90;99.90;;;;;;6027013;23;20423;-89
2020/12/30 07:42:41;;;;;;;33.67;28.83;;;3.90;99.90;;;;;;6026710;23;20419;-89
2020/12/30 07:45:09;;;;;;;38.63;29.10;;;3.90;99.90;;;;;;6083511;23;20484;-89
2020/12/30 07:47:36;;;;;;;31.23;26.10;;;3.90;99.90;;;;;;6136874;23;20417;-89
2020/12/30 07:50:11;;;;;;;34.90;27.73;;;3.90;99.90;;;;;;6137277;23;20413;-89
2020/12/30 07:52:39;;;;;;;35.87;28.70;;;3.90;99.90;;;;;;6136773;23;20502;-89
2020/12/30 07:55:06;;;;;;;33.70;29.97;;;3.80;99.90;;;;;;6136394;23;20416;-89
2020/12/30 07:57:35;;;;;;;36.10;30.73;;;3.90;99.90;;;;;;6138470;23;20420;-88
2020/12/30 08:00:04;;;;;;;36.73;30.20;;;3.90;99.90;;;;;;6139689;23;20420;-88
2020/12/30 08:02:38;;;;;;;35.93;32.03;;;3.90;99.90;;;;;;6142473;23;20460;-88
2020/12/30 08:05:06;;;;;;;34.60;28.60;;;3.80;99.90;;;;;;6138465;23;20424;-88
2020/12/30 08:07:55;;;;;;;35.97;31.87;;;3.80;99.90;;;;;;6139892;23;20481;-88
2020/12/30 08:10:25;;;;;;;37.33;32.30;;;3.80;99.90;;;;;;6139155;23;20436;-87
2020/12/30 08:12:54;;;;;;;36.10;32.17;;;3.80;99.90;;;;;;6140909;23;20428;-87
2020/12/30 08:15:22;;;;;;;39.37;34.20;;;3.80;99.90;;;;;;6140203;23;20436;-87
2020/12/30 08:17:50;;;;;;;37.07;30.20;;;3.80;99.90;;;;;;6140510;23;20441;-87
2020/12/30 08:20:18;;;;;;;38.73;33.40;;;3.80;99.90;;;;;;6139509;23;20476;-87
2020/12/30 08:22:48;;;;;;;42.40;32.37;;;3.80;99.90;;;;;;6139783;23;20424;-87
2020/12/30 08:25:17;;;;;;;36.13;30.63;;;3.80;99.90;;;;;;6139619;23;20449;-87
2020/12/30 08:27:45;;;;;;;39.10;34.70;;;3.80;99.90;;;;;;6138537;23;20441;-87
2020/12/30 08:30:17;;;;;;;40.00;31.23;;;3.80;99.90;;;;;;6137356;23;20908;-87
2020/12/30 08:32:54;;;;;;;39.27;34.30;;;3.80;99.90;;;;;;6140344;23;20444;-86
2020/12/30 08:35:43;;;;;;;38.33;30.70;;;3.80;99.90;;;;;;6139662;23;20416;-87
2020/12/30 08:38:21;;;;;;;39.70;33.00;;;3.80;99.90;;;;;;6139952;23;20448;-87
2020/12/30 08:40:58;;;;;;;39.20;33.27;;;3.80;99.90;;;;;;6140348;23;20413;-87
2020/12/30 08:43:41;;;;;;;39.83;33.43;;;3.80;99.90;;;;;;6139941;23;20432;-87
2020/12/30 08:46:19;;;;;;;41.63;33.28;;;3.80;99.90;;;;;;6139278;23;20426;-86
2020/12/30 08:48:48;;;;;;;37.57;32.67;;;3.80;99.90;;;;;;6139381;23;20777;-87
2020/12/30 08:51:31;;;;;;;38.87;32.90;;;3.90;99.90;;;;;;6139352;23;20892;-88
2020/12/30 08:53:59;;;;;;;37.92;30.75;;;3.90;99.90;;;;;;6132760;23;20878;-88
2020/12/30 08:56:27;;;;;;;39.73;32.53;;;3.90;99.90;;;;;;6132853;23;20537;-88
2020/12/30 08:58:56;;;;;;;40.97;33.00;;;3.90;99.90;;;;;;6132482;23;20444;-88
2020/12/30 09:01:26;;;;;;;37.17;30.80;;;3.90;99.90;;;;;;6133053;23;21017;-88
2020/12/30 09:03:54;;;;;;;40.07;32.67;;;3.90;99.90;;;;;;6133576;23;20414;-88
2020/12/30 09:06:26;;;;;;;38.83;32.63;;;3.90;99.90;;;;;;6138112;23;20514;-88
2020/12/30 11:13:25;;;;;;;36.97;30.40;;;4.60;99.90;;;;;;6144994;22;1076337;-85
2020/12/30 11:15:54;;;;;;;35.73;31.83;;;4.60;99.90;;;;;;6176372;23;20184;-85
2020/12/30 11:18:27;;;;;;;33.33;29.77;;;4.70;99.90;;;;;;6175762;23;20447;-85
2020/12/30 11:21:00;;;;;;;34.43;30.83;;;4.70;99.90;;;;;;6175596;23;20404;-85
2020/12/30 11:23:32;;;;;;;36.77;30.27;;;4.70;99.90;;;;;;6179126;23;20419;-86
2020/12/30 11:26:00;;;;;;;35.10;30.03;;;4.70;99.90;;;;;;6175172;23;20415;-85
2020/12/30 11:28:28;;;;;;;34.73;31.03;;;4.70;99.90;;;;;;6176186;23;20470;-86
2020/12/30 11:30:56;;;;;;;35.80;29.77;;;4.80;99.90;;;;;;6177108;23;20522;-86
2020/12/30 11:33:24;;;;;;;33.37;29.50;;;4.70;99.90;;;;;;6179740;23;20436;-85
2020/12/30 11:35:51;;;;;;;33.37;29.43;;;4.80;99.90;;;;;;6179205;23;20422;-86
2020/12/30 11:38:19;;;;;;;35.60;30.90;;;4.80;99.90;;;;;;6179291;23;20450;-86
2020/12/30 11:40:46;;;;;;;35.15;31.35;;;4.80;99.90;;;;;;6179389;23;20883;-85
2020/12/30 11:43:13;;;;;;;33.07;29.07;;;4.80;99.90;;;;;;6171914;23;20199;-85
2020/12/30 11:45:42;;;;;;;34.20;29.20;;;4.80;99.90;;;;;;6168260;23;20416;-85
2020/12/30 11:48:10;;;;;;;33.67;30.10;;;4.90;99.90;;;;;;6170094;23;20463;-85
2020/12/30 11:50:37;;;;;;;36.55;30.58;;;4.80;99.90;;;;;;6165383;23;20420;-85
2020/12/30 11:53:05;;;;;;;33.17;28.40;;;5.00;99.90;;;;;;6171084;23;20173;-85
2020/12/30 11:55:32;;;;;;;34.00;27.47;;;5.00;99.90;;;;;;6173154;23;20451;-85
2020/12/30 11:57:59;;;;;;;34.30;30.17;;;5.00;99.90;;;;;;6175583;23;20432;-86
2020/12/30 12:00:27;;;;;;;32.40;29.00;;;5.00;99.90;;;;;;6163243;23;20417;-86
2020/12/30 12:02:55;;;;;;;38.67;29.37;;;5.00;99.90;;;;;;6161115;23;20444;-86
2020/12/30 12:05:22;;;;;;;32.57;29.07;;;5.00;99.90;;;;;;6160498;23;20412;-86
2020/12/30 12:07:49;;;;;;;35.17;27.83;;;5.00;99.90;;;;;;6180773;23;20401;-85
2020/12/30 12:10:17;;;;;;;31.57;27.80;;;5.00;99.90;;;;;;6165503;23;20440;-85
2020/12/30 12:12:44;;;;;;;31.67;28.17;;;5.10;99.90;;;;;;6158936;23;20431;-86
2020/12/30 12:15:11;;;;;;;33.37;29.87;;;5.00;99.90;;;;;;6160455;23;20471;-86
2020/12/30 12:17:38;;;;;;;31.50;28.10;;;5.00;99.90;;;;;;6159878;23;20463;-85
2020/12/30 12:20:07;;;;;;;31.60;28.27;;;5.00;99.90;;;;;;6159771;23;20439;-86
2020/12/30 12:22:34;;;;;;;33.53;26.73;;;5.10;99.90;;;;;;6159403;23;20408;-86
2020/12/30 12:25:01;;;;;;;31.50;28.10;;;5.10;99.90;;;;;;6159919;23;20888;-86
2020/12/30 12:27:28;;;;;;;29.00;25.90;;;5.10;99.90;;;;;;6159816;23;20762;-86
2020/12/30 12:29:56;;;;;;;31.50;27.23;;;5.10;99.90;;;;;;6159611;23;20440;-86
2020/12/30 12:32:24;;;;;;;31.10;27.90;;;5.10;99.90;;;;;;6159806;23;20413;-85
2020/12/30 12:34:53;;;;;;;30.30;26.20;;;5.10;99.90;;;;;;6160218;23;20466;-86
2020/12/30 12:37:23;;;;;;;29.27;26.07;;;5.10;99.90;;;;;;6160817;23;20420;-86
2020/12/30 12:39:52;;;;;;;32.67;28.83;;;5.20;99.90;;;;;;6171610;23;20396;-86
2020/12/30 12:42:21;;;;;;;31.20;27.23;;;5.20;99.90;;;;;;6160048;23;20421;-86
2020/12/30 12:44:48;;;;;;;29.77;26.70;;;5.20;99.90;;;;;;6159809;23;20857;-86
2020/12/30 12:47:16;;;;;;;29.47;26.33;;;5.20;99.90;;;;;;6159142;23;20450;-86
2020/12/30 12:49:44;;;;;;;29.37;26.37;;;5.20;99.90;;;;;;6165616;23;20436;-86
2020/12/30 12:52:13;;;;;;;29.27;26.23;;;5.20;99.90;;;;;;6171696;23;20405;-85
2020/12/30 12:54:41;;;;;;;27.70;24.83;;;5.30;99.90;;;;;;6170766;23;20479;-85
2020/12/30 12:57:09;;;;;;;29.83;26.70;;;5.20;99.90;;;;;;6174232;23;20416;-86
2020/12/30 12:59:36;;;;;;;27.83;24.97;;;5.30;99.90;;;;;;6176863;23;20444;-86
2020/12/30 13:02:04;;;;;;;29.53;26.13;;;5.20;99.90;;;;;;6176644;23;20515;-86
2020/12/30 13:04:31;;;;;;;29.13;26.03;;;5.20;99.90;;;;;;6177412;23;20423;-86
2020/12/30 13:07:02;;;;;;;32.87;29.57;;;5.30;99.90;;;;;;6176658;23;20420;-85
2020/12/30 13:09:30;;;;;;;31.67;28.47;;;5.30;99.90;;;;;;6176590;23;20439;-85
2020/12/30 13:11:58;;;;;;;31.37;28.07;;;5.30;99.90;;;;;;6174734;23;20512;-85
2020/12/30 13:14:25;;;;;;;30.87;27.57;;;5.30;99.90;;;;;;6174946;23;20404;-85
2020/12/30 13:16:53;;;;;;;32.87;29.27;;;5.30;99.90;;;;;;6175684;23;20424;-85
2020/12/30 13:19:22;;;;;;;31.90;28.70;;;5.30;99.90;;;;;;6175449;23;20433;-85
2020/12/30 13:21:49;;;;;;;31.20;27.90;;;5.30;99.90;;;;;;6175316;23;20412;-85
2020/12/30 13:24:16;;;;;;;28.83;25.93;;;5.30;99.90;;;;;;6176122;23;20412;-85
2020/12/30 13:26:44;;;;;;;29.40;25.50;;;5.30;99.90;;;;;;6188557;23;20699;-85
2020/12/30 13:29:12;;;;;;;31.07;27.97;;;5.30;99.90;;;;;;6177114;23;20432;-85
2020/12/30 13:31:40;;;;;;;29.57;26.37;;;5.30;99.90;;;;;;6175375;23;20436;-85
2020/12/30 13:34:07;;;;;;;28.17;25.27;;;5.30;99.90;;;;;;6174774;23;20416;-85
2020/12/30 13:36:35;;;;;;;28.40;25.50;;;5.30;99.90;;;;;;6185391;23;20413;-85
2020/12/30 13:39:02;;;;;;;27.30;24.50;;;5.30;99.90;;;;;;6174124;23;20440;-85
2020/12/30 13:41:30;;;;;;;25.90;23.23;;;5.30;99.90;;;;;;6186248;23;20413;-87
2020/12/30 13:43:57;;;;;;;26.37;23.63;;;5.30;99.90;;;;;;6187545;23;20403;-85
2020/12/30 13:46:26;;;;;;;27.13;22.30;;;5.40;99.90;;;;;;6176895;23;20416;-85
2020/12/30 13:48:53;;;;;;;27.20;24.27;;;5.40;99.90;;;;;;6177441;23;20451;-86
2020/12/30 13:51:20;;;;;;;26.10;23.40;;;5.40;99.90;;;;;;6177230;23;20463;-85
2020/12/30 13:53:48;;;;;;;24.60;22.10;;;5.40;99.90;;;;;;6177228;23;20427;-85
2020/12/30 13:56:23;;;;;;;25.33;22.63;;;5.40;99.90;;;;;;6176876;23;20420;-85
2020/12/30 13:58:51;;;;;;;24.33;22.00;;;5.30;99.90;;;;;;6177514;23;20461;-85
2020/12/30 14:01:18;;;;;;;25.10;22.50;;;5.30;99.90;;;;;;6177760;23;20404;-85
2020/12/30 14:03:47;;;;;;;25.93;23.33;;;5.40;99.90;;;;;;6186650;23;20459;-85
2020/12/30 14:06:20;;;;;;;23.67;21.13;;;5.40;99.90;;;;;;6175243;23;20451;-86
2020/12/30 14:08:48;;;;;;;25.17;22.57;;;5.40;99.90;;;;;;6176331;23;20440;-85
2020/12/30 14:11:16;;;;;;;24.20;21.67;;;5.40;99.90;;;;;;6175641;23;20460;-85
2020/12/30 14:13:45;;;;;;;25.10;21.83;;;5.40;99.90;;;;;;6175231;23;20428;-85
2020/12/30 14:16:13;;;;;;;25.92;22.00;;;5.50;99.90;;;;;;6173684;23;20430;-86
2020/12/30 14:18:41;;;;;;;23.50;21.10;;;5.40;99.90;;;;;;6175119;23;20199;-85
2020/12/30 14:21:09;;;;;;;23.67;21.27;;;5.40;99.90;;;;;;6174843;23;20427;-85
2020/12/30 14:23:37;;;;;;;21.60;19.37;;;5.40;99.90;;;;;;6175623;23;20413;-85
2020/12/30 14:26:05;;;;;;;21.10;19.00;;;5.30;99.90;;;;;;6176116;23;20416;-85
2020/12/30 14:28:32;;;;;;;23.50;21.13;;;5.40;99.90;;;;;;6174741;23;20447;-85
2020/12/30 14:31:00;;;;;;;22.33;20.07;;;5.40;99.90;;;;;;6174895;23;20432;-85
2020/12/30 14:33:39;;;;;;;21.83;19.67;;;5.40;99.90;;;;;;6176435;23;20440;-85
2020/12/30 14:36:07;;;;;;;23.20;20.80;;;5.40;99.90;;;;;;6175667;23;20425;-85
2020/12/30 14:38:35;;;;;;;23.10;20.80;;;5.40;99.90;;;;;;6175081;23;20432;-86
2020/12/30 14:41:03;;;;;;;22.00;19.90;;;5.40;99.90;;;;;;6176106;23;20752;-86
2020/12/30 14:43:30;;;;;;;23.40;21.10;;;5.40;99.90;;;;;;6175902;23;20408;-86
2020/12/30 14:45:58;;;;;;;21.63;19.07;;;5.40;99.90;;;;;;6175604;23;20424;-85
2020/12/30 14:48:25;;;;;;;22.00;19.73;;;5.40;99.90;;;;;;6175953;23;20479;-85
2020/12/30 14:51:06;;;;;;;21.73;19.53;;;5.40;99.90;;;;;;6175713;23;20432;-85
2020/12/30 14:53:33;;;;;;;24.10;21.50;;;5.40;99.90;;;;;;6175058;23;20424;-85
2020/12/30 14:56:01;;;;;;;23.60;21.33;;;5.30;99.90;;;;;;6174940;23;20423;-85
2020/12/30 14:58:29;;;;;;;23.63;21.20;;;5.40;99.90;;;;;;6174169;23;20523;-85
2020/12/30 15:00:57;;;;;;;23.23;20.90;;;5.30;99.90;;;;;;6174337;23;20409;-85
2020/12/30 15:03:26;;;;;;;24.50;22.10;;;5.40;99.90;;;;;;6175423;23;20431;-85
2020/12/30 15:05:54;;;;;;;23.77;21.47;;;5.40;99.90;;;;;;6174657;23;20496;-85
2020/12/30 15:08:21;;;;;;;23.00;20.60;;;5.30;99.90;;;;;;6174705;23;20430;-85
2020/12/30 15:10:48;;;;;;;22.97;20.77;;;5.40;99.90;;;;;;6174631;23;20935;-85
2020/12/30 15:13:17;;;;;;;24.20;21.70;;;5.30;99.90;;;;;;6174701;23;20428;-85
2020/12/30 15:15:44;;;;;;;23.50;21.07;;;5.40;99.90;;;;;;6174460;23;20421;-85
2020/12/30 15:18:11;;;;;;;23.03;20.67;;;5.30;99.90;;;;;;6175602;23;20438;-85
2020/12/30 15:20:39;;;;;;;23.77;21.40;;;5.30;99.90;;;;;;6176102;23;20420;-85
2020/12/30 15:23:09;;;;;;;22.90;20.60;;;5.30;99.90;;;;;;6176240;23;20946;-85
2020/12/30 15:25:36;;;;;;;23.50;21.10;;;5.40;99.90;;;;;;6174695;23;20474;-85
2020/12/30 15:28:04;;;;;;;23.03;20.57;;;5.30;99.90;;;;;;6174763;23;20443;-85
2020/12/30 15:30:32;;;;;;;23.40;19.67;;;5.30;99.90;;;;;;6175203;23;20459;-85
2020/12/30 15:33:00;;;;;;;24.97;22.37;;;5.30;99.90;;;;;;6175263;23;20416;-85
2020/12/30 15:35:28;;;;;;;22.43;20.20;;;5.30;99.90;;;;;;6187052;23;20477;-85
2020/12/30 15:37:55;;;;;;;22.77;20.37;;;5.30;99.90;;;;;;6174842;23;20511;-85
2020/12/30 15:40:23;;;;;;;22.50;20.10;;;5.30;99.90;;;;;;6176039;23;20420;-86
2020/12/30 15:42:50;;;;;;;24.67;21.07;;;5.30;99.90;;;;;;6176349;23;20415;-85
2020/12/30 15:45:18;;;;;;;24.40;21.20;;;5.20;99.90;;;;;;6177242;23;20511;-85
2020/12/30 15:47:46;;;;;;;22.60;20.30;;;5.30;99.90;;;;;;6176335;23;20938;-85
2020/12/30 15:50:14;;;;;;;23.73;21.23;;;5.20;99.90;;;;;;6176081;23;20400;-85
2020/12/30 15:52:43;;;;;;;24.40;21.90;;;5.30;99.90;;;;;;6176652;23;20440;-85
2020/12/30 15:55:13;;;;;;;24.20;21.33;;;5.20;99.90;;;;;;6177683;23;20483;-86
2020/12/30 15:57:40;;;;;;;22.17;19.83;;;5.30;99.90;;;;;;6176720;23;20492;-85
2020/12/30 16:00:08;;;;;;;23.98;21.48;;;5.20;99.90;;;;;;6176327;23;20421;-85
2020/12/30 16:02:38;;;;;;;23.93;21.37;;;5.20;99.90;;;;;;6178601;23;20192;-85
2020/12/30 16:05:07;;;;;;;24.33;21.60;;;5.20;99.90;;;;;;6176284;23;20432;-85
2020/12/30 16:07:34;;;;;;;23.00;20.67;;;5.20;99.90;;;;;;6176196;23;20413;-86
2020/12/30 16:10:01;;;;;;;23.48;20.80;;;5.20;99.90;;;;;;6177814;23;20407;-85
2020/12/30 16:12:29;;;;;;;23.77;21.17;;;5.30;99.90;;;;;;6178877;23;20177;-86
2020/12/30 16:14:57;;;;;;;21.47;19.17;;;5.30;99.90;;;;;;6179464;23;20420;-85
2020/12/30 16:17:25;;;;;;;22.10;19.90;;;5.20;99.90;;;;;;6180439;23;20404;-86
2020/12/30 16:19:52;;;;;;;22.13;19.90;;;5.20;99.90;;;;;;6191426;23;20385;-86
2020/12/30 16:22:20;;;;;;;25.00;22.40;;;5.20;99.90;;;;;;6179988;23;20515;-85
2020/12/30 16:24:47;;;;;;;22.10;19.70;;;5.20;99.90;;;;;;6179292;23;20511;-85
2020/12/30 16:27:15;;;;;;;22.57;20.30;;;5.20;99.90;;;;;;6179024;23;20404;-85
2020/12/30 16:29:42;;;;;;;21.60;19.40;;;5.20;99.90;;;;;;6178154;23;20432;-86
2020/12/30 16:32:09;;;;;;;23.63;20.80;;;5.20;99.90;;;;;;6163780;23;20440;-86
2020/12/30 16:34:37;;;;;;;21.20;18.90;;;5.10;99.90;;;;;;6159247;23;20487;-86
2020/12/30 16:37:04;;;;;;;21.60;19.40;;;5.20;99.90;;;;;;6159983;23;20447;-86
2020/12/30 16:39:32;;;;;;;21.43;19.10;;;5.10;99.90;;;;;;6171612;23;20431;-86
2020/12/30 16:41:59;;;;;;;22.83;20.53;;;5.10;99.90;;;;;;6160581;23;20423;-86
2020/12/30 16:44:27;;;;;;;22.70;20.40;;;5.10;99.90;;;;;;6160841;23;20973;-86
2020/12/30 16:46:54;;;;;;;21.97;19.60;;;5.10;99.90;;;;;;6161337;23;20425;-86
2020/12/30 16:49:21;;;;;;;21.10;18.90;;;5.10;99.90;;;;;;6161160;23;20439;-86
2020/12/30 16:51:48;;;;;;;22.30;20.00;;;5.10;99.90;;;;;;6172819;23;20835;-86
2020/12/30 16:54:16;;;;;;;24.20;21.60;;;5.20;99.90;;;;;;6171751;23;20400;-86
2020/12/30 16:56:52;;;;;;;21.37;19.20;;;5.00;99.90;;;;;;6160316;23;20803;-86
2020/12/30 16:59:22;;;;;;;22.67;18.87;;;5.10;99.90;;;;;;6160379;23;20523;-86
2020/12/30 17:01:51;;;;;;;21.90;19.60;;;5.00;99.90;;;;;;6171722;23;20509;-86
2020/12/30 17:04:23;;;;;;;22.33;19.97;;;5.00;99.90;;;;;;6136583;23;20929;-86
2020/12/30 17:06:53;;;;;;;23.10;20.63;;;5.00;99.90;;;;;;6160443;23;20413;-86
2020/12/30 17:09:22;;;;;;;22.23;20.03;;;4.90;99.90;;;;;;6160144;23;20440;-86
2020/12/30 17:11:54;;;;;;;26.40;20.60;;;4.90;99.90;;;;;;6160946;23;20448;-86
2020/12/30 17:14:22;;;;;;;22.60;20.00;;;4.90;99.90;;;;;;6159378;23;20512;-86
2020/12/30 17:16:50;;;;;;;22.20;19.90;;;4.90;99.90;;;;;;6159301;23;20818;-86
2020/12/30 17:19:18;;;;;;;22.10;19.90;;;4.90;99.90;;;;;;6159561;23;20447;-86
2020/12/30 17:21:51;;;;;;;22.80;20.40;;;4.90;99.90;;;;;;6159742;23;20417;-86
2020/12/30 17:24:18;;;;;;;23.83;21.17;;;4.90;99.90;;;;;;6158847;23;20440;-87
2020/12/30 17:26:45;;;;;;;21.80;19.57;;;4.90;99.90;;;;;;6159183;23;20440;-86
2020/12/30 17:29:14;;;;;;;23.63;21.20;;;4.90;99.90;;;;;;6159433;23;20450;-86
2020/12/30 17:31:41;;;;;;;27.43;23.40;;;4.90;99.90;;;;;;6159370;23;20499;-86
2020/12/30 17:34:08;;;;;;;22.30;20.00;;;4.90;99.90;;;;;;6161471;23;20416;-86
2020/12/30 17:36:35;;;;;;;25.20;22.60;;;4.90;99.90;;;;;;6160780;23;20431;-86
2020/12/30 17:39:03;;;;;;;24.10;21.30;;;4.90;99.90;;;;;;6160627;23;20495;-86
2020/12/30 17:41:30;;;;;;;25.37;22.60;;;4.80;99.90;;;;;;6160846;23;20471;-86
2020/12/30 17:44:06;;;;;;;25.20;22.53;;;4.90;99.90;;;;;;6160101;23;20435;-86
2020/12/30 17:46:35;;;;;;;26.50;21.13;;;5.00;99.90;;;;;;6161246;23;20896;-86
2020/12/30 17:49:03;;;;;;;26.20;23.00;;;4.90;99.90;;;;;;6164586;23;20440;-86
2020/12/30 17:51:30;;;;;;;24.00;21.43;;;4.90;99.90;;;;;;6164056;23;20444;-86
2020/12/30 17:53:58;;;;;;;24.77;21.93;;;4.90;99.90;;;;;;6162577;23;20408;-86
2020/12/30 17:56:25;;;;;;;24.07;21.53;;;4.90;99.90;;;;;;6166331;23;20424;-86
2020/12/30 17:58:52;;;;;;;27.60;22.30;;;4.90;99.90;;;;;;6162319;23;20432;-86
2020/12/30 18:01:21;;;;;;;24.67;22.07;;;4.90;99.90;;;;;;6160760;23;20880;-85
2020/12/30 18:03:49;;;;;;;24.20;21.50;;;4.90;99.90;;;;;;6160051;23;20417;-86
2020/12/30 18:06:23;;;;;;;24.70;22.10;;;4.90;99.90;;;;;;6159500;23;20482;-86
2020/12/30 18:08:52;;;;;;;25.33;22.73;;;4.90;99.90;;;;;;6159939;23;20432;-85
2020/12/30 18:11:20;;;;;;;26.67;23.20;;;4.80;99.90;;;;;;6159427;23;20446;-86
2020/12/30 18:13:47;;;;;;;24.27;21.13;;;4.80;99.90;;;;;;6160460;23;20887;-86
2020/12/30 18:16:17;;;;;;;23.90;21.40;;;4.80;99.90;;;;;;6159574;23;20447;-86
2020/12/30 18:18:45;;;;;;;25.27;22.00;;;4.80;99.90;;;;;;6159951;23;20439;-86
2020/12/30 18:21:14;;;;;;;22.53;20.40;;;4.90;99.90;;;;;;6160427;23;20427;-86
2020/12/30 18:23:42;;;;;;;23.30;20.90;;;4.80;99.90;;;;;;6160232;23;20416;-86
2020/12/30 18:26:10;;;;;;;25.47;22.70;;;4.80;99.90;;;;;;6160328;23;20475;-86
2020/12/30 18:28:37;;;;;;;23.57;20.77;;;4.90;99.90;;;;;;6161192;23;20471;-86
2020/12/30 18:31:07;;;;;;;21.83;19.43;;;4.80;99.90;;;;;;6163396;23;20483;-86
2020/12/30 18:33:43;;;;;;;24.50;20.70;;;4.90;99.90;;;;;;6166758;23;20450;-86
2020/12/30 18:36:24;;;;;;;19.77;17.80;;;4.90;99.90;;;;;;6164734;23;20412;-86
2020/12/30 18:38:51;;;;;;;25.97;21.87;;;4.90;99.90;;;;;;6158571;23;20440;-86
2020/12/30 18:41:19;;;;;;;21.73;19.63;;;4.90;99.90;;;;;;6158985;23;20412;-86
2020/12/30 18:43:46;;;;;;;22.77;20.38;;;4.90;99.90;;;;;;6156284;23;20409;-86
2020/12/30 18:46:14;;;;;;;22.23;19.47;;;5.00;99.90;;;;;;6157396;23;20183;-86
2020/12/30 18:48:43;;;;;;;23.10;20.70;;;5.00;99.90;;;;;;6157728;23;20438;-86
2020/12/30 18:51:11;;;;;;;25.23;22.63;;;5.10;99.90;;;;;;6158670;23;20752;-85
2020/12/30 18:53:40;;;;;;;23.60;21.30;;;5.00;99.90;;;;;;6169201;23;20165;-86
2020/12/30 18:56:09;;;;;;;26.27;20.90;;;5.00;99.90;;;;;;6169356;23;20412;-85
2020/12/30 18:58:37;;;;;;;23.07;20.87;;;5.00;99.90;;;;;;6170654;23;20443;-85
2020/12/30 19:01:05;;;;;;;23.03;20.63;;;5.00;99.90;;;;;;6172006;23;20480;-85
2020/12/30 19:03:34;;;;;;;23.77;21.37;;;5.00;99.90;;;;;;6171935;23;20440;-85
2020/12/30 19:06:01;;;;;;;21.87;19.57;;;5.00;99.90;;;;;;6171093;23;20895;-86
2020/12/30 19:08:29;;;;;;;23.03;20.73;;;5.00;99.90;;;;;;6171373;23;20450;-85
2020/12/30 19:10:57;;;;;;;22.40;19.60;;;5.00;99.90;;;;;;6172225;23;20472;-85
2020/12/30 19:13:24;;;;;;;23.97;21.47;;;5.00;99.90;;;;;;6171932;23;20429;-84
2020/12/30 19:15:52;;;;;;;22.77;20.50;;;5.00;99.90;;;;;;6172269;23;20418;-85
2020/12/30 19:18:19;;;;;;;21.37;19.20;;;5.00;99.90;;;;;;6172835;23;20428;-85
2020/12/30 19:20:46;;;;;;;23.13;20.83;;;4.90;99.90;;;;;;6172638;23;20420;-86
2020/12/30 19:23:14;;;;;;;22.00;19.70;;;4.90;99.90;;;;;;6185206;23;20771;-86
2020/12/30 19:25:41;;;;;;;22.70;20.30;;;4.90;99.90;;;;;;6173039;23;20416;-85
2020/12/30 19:28:09;;;;;;;23.63;21.30;;;5.00;99.90;;;;;;6167256;23;20463;-85
2020/12/30 19:30:37;;;;;;;25.83;23.13;;;4.90;99.90;;;;;;6164549;23;20510;-85
2020/12/30 19:33:04;;;;;;;24.80;22.30;;;4.80;99.90;;;;;;6167480;23;20416;-85
2020/12/30 19:35:31;;;;;;;21.83;19.57;;;4.90;99.90;;;;;;6168765;23;20420;-85
2020/12/30 19:37:59;;;;;;;23.50;20.27;;;4.80;99.90;;;;;;6169259;23;20440;-85
2020/12/30 19:40:26;;;;;;;22.90;19.70;;;4.80;99.90;;;;;;6166787;23;20409;-85
2020/12/30 19:42:53;;;;;;;22.43;20.23;;;4.80;99.90;;;;;;6183056;23;20487;-85
2020/12/30 19:45:22;;;;;;;23.57;21.10;;;4.80;99.90;;;;;;6164746;23;20762;-85
2020/12/30 19:47:49;;;;;;;21.73;19.50;;;4.80;99.90;;;;;;6170134;23;20443;-86
2020/12/30 19:50:17;;;;;;;23.80;21.40;;;4.80;99.90;;;;;;6171468;23;20740;-85
2020/12/30 19:52:44;;;;;;;20.97;18.73;;;4.80;99.90;;;;;;6171928;23;20440;-86
2020/12/30 19:55:12;;;;;;;21.90;19.60;;;4.80;99.90;;;;;;6172391;23;20747;-85
2020/12/30 19:57:39;;;;;;;21.60;19.30;;;4.70;99.90;;;;;;6169947;23;20814;-85
2020/12/30 20:00:07;;;;;;;21.63;19.43;;;4.70;99.90;;;;;;6174447;23;20428;-85
2020/12/30 20:02:39;;;;;;;22.20;19.90;;;4.70;99.90;;;;;;6172859;23;20412;-85
2020/12/30 20:05:07;;;;;;;22.40;20.20;;;4.70;99.90;;;;;;6170037;23;20724;-85
2020/12/30 20:07:35;;;;;;;20.67;18.60;;;4.70;99.90;;;;;;6171535;23;20430;-85
2020/12/30 20:10:03;;;;;;;20.97;18.80;;;4.70;99.90;;;;;;6170565;23;20416;-85
2020/12/30 20:12:32;;;;;;;21.40;19.20;;;4.70;99.90;;;;;;6171595;23;20452;-85
2020/12/30 20:15:00;;;;;;;22.07;19.77;;;4.70;99.90;;;;;;6171221;23;20452;-85
2020/12/30 20:17:27;;;;;;;20.70;18.50;;;4.70;99.90;;;;;;6171195;23;20424;-85
2020/12/30 20:19:55;;;;;;;20.17;18.10;;;4.70;99.90;;;;;;6169149;23;20421;-85
2020/12/30 20:22:23;;;;;;;18.80;16.77;;;4.70;99.90;;;;;;6172538;23;20712;-85
2020/12/30 20:24:50;;;;;;;17.53;15.83;;;4.70;99.90;;;;;;6173177;23;20416;-86
2020/12/30 20:27:18;;;;;;;17.20;15.53;;;4.70;99.90;;;;;;6171278;23;20548;-85
2020/12/30 20:29:47;;;;;;;17.90;16.20;;;4.70;99.90;;;;;;6166513;23;20445;-85
2020/12/30 20:32:14;;;;;;;16.00;14.50;;;4.70;99.90;;;;;;6159624;23;20759;-85
2020/12/30 20:34:43;;;;;;;17.03;15.43;;;4.80;99.90;;;;;;6160025;23;20427;-85
2020/12/30 20:37:11;;;;;;;15.87;14.27;;;4.80;99.90;;;;;;6161017;23;20416;-85
2020/12/30 20:39:39;;;;;;;14.67;13.23;;;4.80;99.90;;;;;;6160271;23;20440;-85
2020/12/30 20:42:07;;;;;;;15.80;14.20;;;4.80;99.90;;;;;;6158444;23;20473;-86
2020/12/30 20:44:34;;;;;;;16.77;15.13;;;4.90;99.90;;;;;;6160186;23;20421;-86
2020/12/30 20:47:04;;;;;;;14.80;13.20;;;5.00;99.90;;;;;;6160118;23;20423;-86
2020/12/30 20:49:32;;;;;;;15.83;14.33;;;5.00;99.90;;;;;;6159006;23;20448;-86
2020/12/30 20:52:00;;;;;;;16.63;14.90;;;4.90;99.90;;;;;;6172646;23;20428;-85
2020/12/30 20:54:28;;;;;;;15.67;14.17;;;5.00;99.90;;;;;;6171766;23;20397;-85
2020/12/30 20:56:58;;;;;;;15.60;14.00;;;5.00;99.90;;;;;;6162411;23;20404;-85
2020/12/30 20:59:27;;;;;;;14.97;13.47;;;5.00;99.90;;;;;;6175943;23;20440;-85
2020/12/30 21:01:54;;;;;;;14.10;12.90;;;5.00;99.90;;;;;;6176338;23;20401;-84
2020/12/30 21:04:22;;;;;;;14.90;13.50;;;5.00;99.90;;;;;;6176337;23;20412;-84
2020/12/30 21:06:56;;;;;;;13.40;12.20;;;5.00;99.90;;;;;;6173959;23;20423;-83
2020/12/30 21:09:23;;;;;;;13.90;12.60;;;5.00;99.90;;;;;;6174612;23;20436;-84
2020/12/30 21:11:52;;;;;;;13.13;12.00;;;5.00;99.90;;;;;;6175084;23;20450;-84
2020/12/30 21:14:19;;;;;;;12.27;11.17;;;5.00;99.90;;;;;;6186425;23;20436;-84
2020/12/30 21:16:47;;;;;;;14.37;12.90;;;5.00;99.90;;;;;;6175982;23;20419;-84
2020/12/30 21:19:15;;;;;;;11.67;10.60;;;5.00;99.90;;;;;;6174246;23;20440;-84
2020/12/30 21:21:43;;;;;;;11.83;10.83;;;4.90;99.90;;;;;;6174298;23;20397;-83
2020/12/30 21:24:10;;;;;;;12.87;11.77;;;5.00;99.90;;;;;;6174824;23;20420;-84
2020/12/30 21:26:43;;;;;;;12.33;11.20;;;5.00;99.90;;;;;;6174573;23;20471;-84
2020/12/30 21:29:11;;;;;;;16.07;10.97;;;5.10;99.90;;;;;;6175339;23;20448;-84
2020/12/30 21:31:39;;;;;;;12.07;11.03;;;5.00;99.90;;;;;;6175428;23;20500;-84
2020/12/30 21:34:07;;;;;;;11.23;10.00;;;5.10;99.90;;;;;;6174496;23;20409;-84
2020/12/30 21:36:34;;;;;;;12.57;10.63;;;5.10;99.90;;;;;;6174542;23;20451;-84
2020/12/30 21:39:01;;;;;;;10.57;9.67;;;5.10;99.90;;;;;;6175211;23;20432;-84
2020/12/30 21:41:29;;;;;;;10.83;9.83;;;5.10;99.90;;;;;;6174930;23;20416;-84
2020/12/30 21:43:56;;;;;;;11.57;10.57;;;5.10;99.90;;;;;;6175439;23;20430;-84
2020/12/30 21:46:24;;;;;;;12.07;11.07;;;5.10;99.90;;;;;;6175492;23;20412;-84
2020/12/30 21:48:52;;;;;;;13.10;11.90;;;5.10;99.90;;;;;;6173647;23;20432;-84
2020/12/30 21:51:19;;;;;;;14.30;12.93;;;5.10;99.90;;;;;;6170007;23;20445;-84
2020/12/30 21:53:47;;;;;;;12.90;11.80;;;5.10;99.90;;;;;;6168732;23;20471;-84
2020/12/30 21:56:15;;;;;;;14.27;13.07;;;5.10;99.90;;;;;;6169358;23;20428;-84
2020/12/30 21:58:43;;;;;;;13.97;12.77;;;5.10;99.90;;;;;;6169284;23;20436;-84
2020/12/30 22:01:14;;;;;;;13.43;12.33;;;5.10;99.90;;;;;;6169665;23;20514;-84
2020/12/30 22:03:45;;;;;;;13.90;12.60;;;5.10;99.90;;;;;;6169214;23;20475;-84
2020/12/30 22:06:14;;;;;;;13.53;12.33;;;5.10;99.90;;;;;;6169613;23;20419;-84
2020/12/30 22:08:42;;;;;;;15.07;13.50;;;5.10;99.90;;;;;;6167435;23;20436;-84